createdAt,value
2018-04-16T00:00:19.462Z,11.72
2018-04-16T00:01:20.024Z,11.72
2018-04-16T00:02:20.586Z,11.72
2018-04-16T00:03:21.144Z,11.76
2018-04-16T00:04:21.702Z,11.69
2018-04-16T00:05:22.261Z,11.69
2018-04-16T00:06:22.823Z,11.72
2018-04-16T00:07:23.390Z,11.62
2018-04-16T00:08:23.943Z,11.48
2018-04-16T00:09:24.504Z,11.57
2018-04-16T00:10:25.070Z,11.44
2018-04-16T00:11:25.624Z,11.44
2018-04-16T00:12:26.187Z,11.44
2018-04-16T00:13:26.747Z,11.42
2018-04-16T00:14:27.321Z,11.39
2018-04-16T00:15:27.880Z,11.44
2018-04-16T00:16:28.440Z,11.39
2018-04-16T00:17:29.001Z,11.40
2018-04-16T00:18:29.562Z,11.45
2018-04-16T00:19:30.120Z,11.36
2018-04-16T00:20:30.680Z,11.45
2018-04-16T00:21:31.240Z,11.40
2018-04-16T00:22:31.800Z,11.44
2018-04-16T00:23:32.362Z,11.40
2018-04-16T00:24:32.921Z,11.44
2018-04-16T00:25:33.482Z,11.44
2018-04-16T00:26:34.040Z,11.39
2018-04-16T00:27:34.601Z,11.42
2018-04-16T00:28:35.160Z,11.44
2018-04-16T00:29:35.718Z,11.44
2018-04-16T00:30:36.278Z,11.42
2018-04-16T00:31:36.838Z,11.42
2018-04-16T00:32:37.401Z,11.39
2018-04-16T00:33:37.960Z,11.37
2018-04-16T00:34:38.499Z,11.36
2018-04-16T00:35:39.047Z,11.42
2018-04-16T00:36:39.595Z,11.42
2018-04-16T00:37:40.139Z,11.50
2018-04-16T00:38:40.687Z,11.44
2018-04-16T00:39:41.240Z,11.48
2018-04-16T00:40:41.791Z,11.50
2018-04-16T00:41:42.336Z,11.45
2018-04-16T00:42:42.884Z,11.48
2018-04-16T00:43:43.426Z,11.42
2018-04-16T00:44:43.977Z,11.37
2018-04-16T00:45:44.518Z,11.34
2018-04-16T00:46:45.057Z,11.32
2018-04-16T00:47:45.599Z,11.30
2018-04-16T00:48:46.145Z,11.33
2018-04-16T00:49:46.695Z,11.32
2018-04-16T00:50:47.246Z,11.39
2018-04-16T00:51:47.797Z,11.30
2018-04-16T00:52:48.349Z,11.26
2018-04-16T00:53:48.889Z,11.27
2018-04-16T00:54:49.439Z,11.12
2018-04-16T00:55:49.988Z,11.19
2018-04-16T00:56:50.536Z,11.18
2018-04-16T00:57:51.081Z,11.19
2018-04-16T00:58:51.624Z,11.12
2018-04-16T00:59:52.167Z,11.11
2018-04-16T01:00:52.715Z,11.00
2018-04-16T01:01:53.262Z,11.03
2018-04-16T01:02:53.814Z,11.07
2018-04-16T01:03:54.359Z,11.07
2018-04-16T01:04:54.908Z,11.01
2018-04-16T01:05:55.456Z,11.09
2018-04-16T01:06:56.006Z,11.16
2018-04-16T01:07:56.549Z,11.21
2018-04-16T01:08:57.093Z,11.21
2018-04-16T01:09:57.642Z,11.24
2018-04-16T01:10:58.191Z,11.24
2018-04-16T01:11:58.741Z,11.32
2018-04-16T01:12:59.291Z,11.26
2018-04-16T01:13:59.841Z,11.36
2018-04-16T01:15:00.387Z,11.27
2018-04-16T01:16:00.938Z,11.47
2018-04-16T01:17:01.488Z,11.47
2018-04-16T01:18:02.029Z,11.47
2018-04-16T01:19:02.576Z,11.44
2018-04-16T01:20:03.127Z,11.42
2018-04-16T01:21:03.678Z,11.47
2018-04-16T01:22:04.227Z,11.51
2018-04-16T01:23:04.767Z,11.47
2018-04-16T01:24:05.326Z,11.47
2018-04-16T01:25:05.864Z,11.50
2018-04-16T01:26:06.412Z,11.50
2018-04-16T01:27:06.960Z,11.42
2018-04-16T01:28:07.519Z,11.54
2018-04-16T01:29:08.063Z,11.54
2018-04-16T01:30:08.603Z,11.69
2018-04-16T01:31:09.164Z,11.66
2018-04-16T01:32:09.706Z,11.73
2018-04-16T01:33:10.249Z,11.76
2018-04-16T01:34:10.797Z,11.83
2018-04-16T01:35:11.348Z,11.91
2018-04-16T01:36:11.895Z,11.85
2018-04-16T01:37:12.442Z,11.91
2018-04-16T01:38:12.989Z,11.91
2018-04-16T01:39:13.533Z,11.88
2018-04-16T01:40:14.076Z,11.83
2018-04-16T01:41:14.624Z,11.90
2018-04-16T01:42:15.172Z,11.90
2018-04-16T01:43:15.731Z,11.90
2018-04-16T01:44:16.280Z,11.91
2018-04-16T01:45:16.826Z,11.95
2018-04-16T01:46:17.371Z,11.93
2018-04-16T01:47:17.918Z,11.95
2018-04-16T01:48:18.468Z,11.93
2018-04-16T01:49:19.016Z,11.96
2018-04-16T01:50:19.560Z,12.04
2018-04-16T01:51:20.112Z,11.96
2018-04-16T01:52:20.662Z,12.04
2018-04-16T01:53:21.208Z,12.01
2018-04-16T01:54:21.752Z,12.06
2018-04-16T01:55:22.303Z,12.00
2018-04-16T01:56:22.851Z,11.98
2018-04-16T01:57:23.401Z,11.98
2018-04-16T01:58:23.953Z,12.01
2018-04-16T01:59:24.510Z,11.93
2018-04-16T02:00:25.056Z,11.98
2018-04-16T02:01:25.600Z,12.03
2018-04-16T02:02:26.159Z,12.11
2018-04-16T02:03:26.709Z,12.09
2018-04-16T02:04:27.255Z,12.11
2018-04-16T02:05:27.803Z,12.09
2018-04-16T02:06:28.348Z,12.07
2018-04-16T02:07:28.893Z,12.11
2018-04-16T02:08:29.442Z,12.10
2018-04-16T02:09:29.992Z,12.10
2018-04-16T02:10:30.547Z,12.10
2018-04-16T02:11:31.120Z,12.09
2018-04-16T02:12:31.637Z,11.91
2018-04-16T02:13:32.189Z,11.90
2018-04-16T02:14:32.741Z,11.95
2018-04-16T02:15:33.293Z,11.96
2018-04-16T02:16:33.838Z,11.98
2018-04-16T02:17:34.388Z,11.95
2018-04-16T02:18:34.932Z,11.90
2018-04-16T02:19:35.480Z,11.91
2018-04-16T02:20:36.029Z,11.98
2018-04-16T02:21:36.575Z,12.04
2018-04-16T02:22:37.121Z,11.98
2018-04-16T02:23:37.668Z,12.00
2018-04-16T02:24:38.215Z,12.01
2018-04-16T02:25:38.768Z,12.07
2018-04-16T02:26:39.312Z,11.91
2018-04-16T02:27:39.859Z,11.93
2018-04-16T02:28:40.405Z,11.95
2018-04-16T02:29:40.956Z,11.93
2018-04-16T02:30:41.505Z,12.00
2018-04-16T02:31:42.054Z,12.04
2018-04-16T02:32:42.598Z,12.00
2018-04-16T02:33:43.150Z,11.95
2018-04-16T02:34:43.699Z,12.01
2018-04-16T02:35:44.245Z,12.01
2018-04-16T02:36:44.798Z,11.95
2018-04-16T02:37:45.340Z,12.03
2018-04-16T02:38:45.885Z,12.01
2018-04-16T02:39:46.436Z,12.09
2018-04-16T02:40:46.989Z,12.00
2018-04-16T02:41:47.545Z,12.04
2018-04-16T02:42:48.092Z,12.07
2018-04-16T02:43:48.649Z,12.03
2018-04-16T02:44:49.188Z,12.10
2018-04-16T02:45:49.737Z,12.06
2018-04-16T02:46:50.282Z,12.14
2018-04-16T02:47:50.829Z,12.11
2018-04-16T02:48:51.376Z,12.14
2018-04-16T02:49:51.925Z,12.11
2018-04-16T02:50:52.475Z,12.10
2018-04-16T02:51:53.020Z,12.11
2018-04-16T02:52:53.568Z,12.14
2018-04-16T02:53:54.117Z,12.09
2018-04-16T02:54:54.670Z,12.09
2018-04-16T02:55:55.218Z,12.19
2018-04-16T02:56:55.767Z,12.22
2018-04-16T02:57:56.318Z,12.22
2018-04-16T02:58:56.871Z,12.28
2018-04-16T02:59:57.424Z,12.25
2018-04-16T03:00:57.976Z,12.24
2018-04-16T03:01:58.523Z,12.29
2018-04-16T03:02:59.068Z,12.27
2018-04-16T03:03:59.631Z,12.19
2018-04-16T03:05:00.177Z,12.16
2018-04-16T03:06:00.731Z,12.10
2018-04-16T03:07:01.278Z,12.09
2018-04-16T03:08:01.826Z,12.14
2018-04-16T03:09:02.376Z,11.96
2018-04-16T03:10:02.924Z,12.04
2018-04-16T03:11:03.469Z,12.03
2018-04-16T03:12:04.015Z,11.90
2018-04-16T03:13:04.579Z,11.90
2018-04-16T03:14:05.117Z,12.03
2018-04-16T03:15:05.664Z,12.03
2018-04-16T03:16:06.213Z,12.06
2018-04-16T03:17:06.757Z,12.09
2018-04-16T03:18:07.304Z,12.14
2018-04-16T03:19:07.856Z,12.11
2018-04-16T03:20:08.401Z,12.09
2018-04-16T03:21:08.951Z,12.22
2018-04-16T03:22:09.497Z,12.22
2018-04-16T03:23:10.045Z,12.22
2018-04-16T03:24:10.598Z,12.21
2018-04-16T03:25:11.145Z,12.28
2018-04-16T03:26:11.699Z,12.27
2018-04-16T03:27:12.251Z,12.21
2018-04-16T03:28:12.804Z,12.24
2018-04-16T03:29:13.351Z,12.34
2018-04-16T03:30:13.903Z,12.27
2018-04-16T03:31:14.449Z,12.28
2018-04-16T03:32:14.997Z,12.29
2018-04-16T03:33:15.547Z,12.27
2018-04-16T03:34:16.100Z,12.31
2018-04-16T03:35:16.644Z,12.31
2018-04-16T03:36:17.189Z,12.31
2018-04-16T03:37:17.742Z,12.29
2018-04-16T03:38:18.292Z,12.31
2018-04-16T03:39:18.839Z,12.24
2018-04-16T03:40:19.389Z,12.16
2018-04-16T03:41:19.939Z,12.24
2018-04-16T03:42:20.483Z,12.29
2018-04-16T03:43:21.030Z,12.22
2018-04-16T03:44:21.576Z,12.16
2018-04-16T03:45:22.128Z,12.14
2018-04-16T03:46:22.679Z,12.10
2018-04-16T03:47:23.230Z,12.11
2018-04-16T03:48:23.777Z,12.13
2018-04-16T03:49:24.322Z,12.21
2018-04-16T03:50:24.871Z,12.19
2018-04-16T03:51:25.420Z,12.21
2018-04-16T03:52:25.967Z,12.22
2018-04-16T03:53:26.512Z,12.27
2018-04-16T03:54:27.058Z,12.27
2018-04-16T03:55:27.609Z,12.25
2018-04-16T03:56:28.159Z,12.31
2018-04-16T03:57:28.708Z,12.25
2018-04-16T03:58:29.257Z,12.21
2018-04-16T03:59:29.807Z,12.22
2018-04-16T04:00:30.353Z,12.22
2018-04-16T04:01:30.902Z,12.24
2018-04-16T04:02:31.452Z,12.24
2018-04-16T04:03:31.997Z,12.21
2018-04-16T04:04:32.542Z,12.10
2018-04-16T04:05:33.095Z,12.18
2018-04-16T04:06:33.642Z,12.16
2018-04-16T04:07:34.195Z,12.10
2018-04-16T04:08:34.737Z,12.11
2018-04-16T04:09:35.284Z,12.09
2018-04-16T04:10:35.828Z,11.95
2018-04-16T04:11:36.377Z,11.96
2018-04-16T04:12:36.926Z,11.90
2018-04-16T04:13:37.476Z,11.83
2018-04-16T04:14:38.027Z,11.77
2018-04-16T04:15:38.579Z,11.84
2018-04-16T04:16:39.127Z,11.84
2018-04-16T04:17:39.675Z,11.77
2018-04-16T04:18:40.219Z,11.75
2018-04-16T04:19:40.774Z,11.69
2018-04-16T04:20:41.323Z,11.75
2018-04-16T04:21:41.871Z,11.83
2018-04-16T04:22:42.423Z,11.77
2018-04-16T04:23:42.974Z,11.73
2018-04-16T04:24:43.519Z,11.76
2018-04-16T04:25:44.066Z,11.66
2018-04-16T04:26:44.623Z,11.66
2018-04-16T04:27:45.168Z,11.66
2018-04-16T04:28:45.718Z,11.72
2018-04-16T04:29:46.269Z,11.67
2018-04-16T04:30:46.822Z,11.65
2018-04-16T04:31:47.368Z,11.69
2018-04-16T04:32:47.914Z,11.72
2018-04-16T04:33:48.470Z,11.80
2018-04-16T04:34:49.027Z,11.84
2018-04-16T04:35:49.576Z,11.80
2018-04-16T04:36:50.121Z,11.83
2018-04-16T04:37:50.679Z,11.81
2018-04-16T04:38:51.232Z,11.80
2018-04-16T04:39:51.784Z,11.84
2018-04-16T04:40:52.338Z,11.83
2018-04-16T04:41:52.882Z,11.81
2018-04-16T04:42:53.438Z,11.85
2018-04-16T04:43:53.994Z,11.90
2018-04-16T04:44:54.546Z,11.87
2018-04-16T04:45:55.105Z,11.91
2018-04-16T04:46:55.652Z,11.88
2018-04-16T04:47:56.207Z,11.88
2018-04-16T04:48:56.756Z,11.95
2018-04-16T04:49:57.310Z,11.93
2018-04-16T04:50:57.892Z,11.95
2018-04-16T04:51:58.432Z,11.93
2018-04-16T04:52:59.018Z,11.90
2018-04-16T04:53:59.518Z,11.90
2018-04-16T04:55:00.072Z,11.98
2018-04-16T04:56:00.626Z,11.95
2018-04-16T04:57:01.180Z,11.98
2018-04-16T04:58:01.732Z,12.00
2018-04-16T04:59:02.289Z,11.98
2018-04-16T05:00:02.834Z,12.00
2018-04-16T05:01:03.387Z,12.01
2018-04-16T05:02:03.935Z,12.07
2018-04-16T05:03:04.489Z,12.00
2018-04-16T05:04:05.041Z,11.96
2018-04-16T05:05:05.592Z,11.90
2018-04-16T05:06:06.149Z,11.96
2018-04-16T05:07:06.693Z,11.93
2018-04-16T05:08:07.246Z,12.00
2018-04-16T05:09:07.792Z,11.98
2018-04-16T05:10:08.347Z,12.03
2018-04-16T05:11:08.905Z,12.01
2018-04-16T05:12:09.452Z,12.04
2018-04-16T05:13:10.016Z,12.06
2018-04-16T05:14:10.566Z,12.09
2018-04-16T05:15:11.116Z,12.16
2018-04-16T05:16:11.674Z,12.09
2018-04-16T05:17:12.231Z,12.11
2018-04-16T05:18:12.784Z,12.09
2018-04-16T05:19:13.341Z,12.11
2018-04-16T05:20:13.896Z,12.07
2018-04-16T05:21:14.451Z,12.10
2018-04-16T05:22:15.009Z,12.11
2018-04-16T05:23:15.560Z,12.14
2018-04-16T05:24:16.117Z,12.13
2018-04-16T05:25:16.670Z,12.10
2018-04-16T05:26:17.225Z,12.10
2018-04-16T05:27:17.786Z,12.18
2018-04-16T05:28:18.337Z,12.19
2018-04-16T05:29:18.883Z,12.14
2018-04-16T05:30:19.436Z,12.24
2018-04-16T05:31:20.098Z,12.25
2018-04-16T05:32:20.655Z,12.19
2018-04-16T05:33:21.204Z,12.27
2018-04-16T05:34:21.758Z,12.32
2018-04-16T05:35:22.315Z,12.29
2018-04-16T05:36:22.868Z,12.29
2018-04-16T05:37:23.422Z,12.25
2018-04-16T05:38:23.977Z,12.35
2018-04-16T05:39:24.528Z,12.27
2018-04-16T05:40:25.081Z,12.29
2018-04-16T05:41:25.641Z,12.44
2018-04-16T05:42:26.213Z,12.43
2018-04-16T05:43:26.743Z,12.46
2018-04-16T05:44:27.303Z,12.43
2018-04-16T05:45:27.857Z,12.46
2018-04-16T05:46:28.414Z,12.60
2018-04-16T05:47:28.958Z,12.60
2018-04-16T05:48:29.515Z,12.85
2018-04-16T05:49:30.074Z,12.89
2018-04-16T05:50:30.640Z,13.02
2018-04-16T05:51:31.183Z,13.18
2018-04-16T05:52:31.744Z,13.20
2018-04-16T05:53:32.309Z,13.38
2018-04-16T05:54:32.854Z,13.69
2018-04-16T05:55:33.409Z,14.36
2018-04-16T05:56:33.962Z,14.66
2018-04-16T05:57:34.520Z,14.65
2018-04-16T05:58:35.135Z,14.55
2018-04-16T05:59:35.679Z,14.37
2018-04-16T06:00:36.353Z,14.29
2018-04-16T06:01:36.905Z,14.50
2018-04-16T06:02:37.456Z,15.22
2018-04-16T06:03:37.995Z,15.95
2018-04-16T06:04:38.549Z,16.33
2018-04-16T06:05:39.114Z,16.56
2018-04-16T06:06:39.724Z,16.68
2018-04-16T06:07:40.234Z,16.49
2018-04-16T06:08:40.788Z,16.27
2018-04-16T06:09:41.356Z,16.39
2018-04-16T06:10:41.915Z,16.58
2018-04-16T06:11:42.484Z,16.75
2018-04-16T06:12:43.067Z,16.79
2018-04-16T06:13:43.597Z,16.75
2018-04-16T06:14:44.156Z,16.76
2018-04-16T06:15:44.712Z,16.81
2018-04-16T06:16:45.273Z,16.86
2018-04-16T06:17:45.836Z,17.12
2018-04-16T06:18:46.396Z,17.41
2018-04-16T06:19:46.955Z,17.48
2018-04-16T06:20:47.521Z,17.71
2018-04-16T06:21:48.085Z,18.14
2018-04-16T06:22:48.644Z,18.26
2018-04-16T06:23:49.217Z,18.38
2018-04-16T06:24:49.765Z,18.60
2018-04-16T06:25:50.328Z,18.30
2018-04-16T06:26:50.893Z,17.85
2018-04-16T06:27:51.450Z,17.77
2018-04-16T06:28:52.007Z,17.63
2018-04-16T06:29:52.560Z,17.44
2018-04-16T06:30:53.131Z,17.14
2018-04-16T06:31:53.692Z,17.05
2018-04-16T06:32:54.302Z,16.94
2018-04-16T06:33:54.880Z,17.00
2018-04-16T06:34:55.449Z,16.98
2018-04-16T06:35:56.008Z,17.18
2018-04-16T06:36:56.634Z,17.33
2018-04-16T06:37:57.110Z,17.21
2018-04-16T06:38:57.666Z,17.24
2018-04-16T06:39:58.231Z,17.55
2018-04-16T06:40:58.798Z,17.85
2018-04-16T06:41:59.357Z,18.11
2018-04-16T06:42:59.919Z,18.43
2018-04-16T06:44:00.486Z,18.93
2018-04-16T06:45:01.046Z,19.33
2018-04-16T06:46:01.612Z,19.84
2018-04-16T06:47:02.178Z,19.98
2018-04-16T06:48:02.742Z,20.07
2018-04-16T06:49:03.310Z,20.24
2018-04-16T06:50:03.875Z,20.48
2018-04-16T06:51:04.447Z,20.60
2018-04-16T06:52:05.020Z,20.60
2018-04-16T06:53:05.610Z,20.52
2018-04-16T06:54:06.149Z,20.52
2018-04-16T06:55:06.716Z,20.52
2018-04-16T06:56:07.273Z,20.32
2018-04-16T06:57:07.872Z,20.31
2018-04-16T06:58:08.414Z,20.22
2018-04-16T06:59:08.984Z,20.06
2018-04-16T07:00:09.562Z,19.69
2018-04-16T07:01:10.249Z,19.59
2018-04-16T07:02:10.813Z,19.29
2018-04-16T07:03:11.383Z,19.19
2018-04-16T07:04:11.998Z,19.11
2018-04-16T07:05:12.512Z,19.34
2018-04-16T07:06:13.082Z,19.33
2018-04-16T07:07:13.737Z,19.09
2018-04-16T07:08:14.380Z,18.81
2018-04-16T07:09:15.049Z,18.62
2018-04-16T07:10:15.656Z,18.62
2018-04-16T07:11:16.262Z,18.59
2018-04-16T07:12:16.810Z,18.38
2018-04-16T07:13:17.373Z,17.97
2018-04-16T07:14:17.931Z,17.95
2018-04-16T07:15:18.497Z,18.11
2018-04-16T07:16:19.061Z,18.20
2018-04-16T07:17:19.619Z,18.19
2018-04-16T07:18:20.249Z,18.35
2018-04-16T07:19:20.772Z,18.37
2018-04-16T07:20:21.354Z,18.10
2018-04-16T07:21:21.923Z,18.37
2018-04-16T07:22:22.528Z,18.53
2018-04-16T07:23:23.121Z,18.62
2018-04-16T07:24:23.657Z,18.96
2018-04-16T07:25:24.246Z,18.92
2018-04-16T07:26:24.817Z,18.51
2018-04-16T07:27:25.434Z,18.30
2018-04-16T07:28:25.940Z,18.53
2018-04-16T07:29:26.505Z,18.78
2018-04-16T07:30:27.076Z,18.95
2018-04-16T07:31:27.707Z,19.07
2018-04-16T07:32:28.246Z,19.09
2018-04-16T07:33:28.819Z,19.06
2018-04-16T07:34:29.380Z,19.02
2018-04-16T07:35:29.973Z,18.96
2018-04-16T07:36:30.526Z,18.84
2018-04-16T07:37:31.095Z,18.81
2018-04-16T07:38:31.659Z,18.81
2018-04-16T07:39:32.217Z,18.56
2018-04-16T07:40:32.777Z,18.55
2018-04-16T07:41:37.698Z,18.69
2018-04-16T07:42:38.258Z,19.06
2018-04-16T07:43:38.829Z,19.16
2018-04-16T07:44:39.400Z,18.71
2018-04-16T07:45:39.954Z,18.34
2018-04-16T07:46:40.522Z,18.69
2018-04-16T07:47:41.081Z,18.63
2018-04-16T07:48:41.647Z,18.62
2018-04-16T07:49:42.218Z,18.58
2018-04-16T07:50:42.785Z,18.63
2018-04-16T07:51:43.355Z,18.93
2018-04-16T07:52:43.935Z,19.04
2018-04-16T07:53:44.487Z,19.09
2018-04-16T07:54:45.050Z,19.15
2018-04-16T07:55:45.612Z,19.33
2018-04-16T07:56:46.187Z,19.64
2018-04-16T07:57:46.750Z,19.74
2018-04-16T07:58:47.321Z,19.94
2018-04-16T07:59:47.885Z,20.21
2018-04-16T08:00:48.459Z,20.40
2018-04-16T08:01:49.025Z,20.81
2018-04-16T08:02:49.600Z,21.00
2018-04-16T08:03:50.170Z,21.09
2018-04-16T08:04:50.730Z,21.20
2018-04-16T08:05:51.305Z,20.66
2018-04-16T08:06:51.875Z,20.69
2018-04-16T08:07:52.448Z,20.78
2018-04-16T08:08:53.009Z,20.75
2018-04-16T08:09:53.597Z,20.96
2018-04-16T08:10:54.169Z,21.17
2018-04-16T08:11:54.736Z,21.37
2018-04-16T08:12:55.306Z,21.65
2018-04-16T08:13:55.880Z,21.79
2018-04-16T08:14:56.454Z,21.62
2018-04-16T08:15:57.039Z,21.54
2018-04-16T08:16:57.624Z,21.40
2018-04-16T08:17:58.205Z,21.30
2018-04-16T08:18:58.826Z,21.24
2018-04-16T08:19:59.398Z,21.03
2018-04-16T08:20:59.971Z,20.99
2018-04-16T08:22:00.534Z,21.07
2018-04-16T08:23:01.106Z,21.05
2018-04-16T08:24:01.682Z,21.14
2018-04-16T08:25:02.255Z,21.18
2018-04-16T08:26:02.835Z,21.54
2018-04-16T08:27:03.420Z,21.42
2018-04-16T08:28:04.223Z,21.17
2018-04-16T08:29:04.747Z,20.99
2018-04-16T08:30:05.327Z,21.10
2018-04-16T08:31:05.891Z,21.07
2018-04-16T08:32:06.456Z,21.09
2018-04-16T08:33:07.030Z,21.17
2018-04-16T08:34:07.659Z,21.27
2018-04-16T08:35:08.236Z,21.55
2018-04-16T08:36:08.815Z,21.67
2018-04-16T08:37:09.391Z,21.89
2018-04-16T08:38:09.972Z,22.05
2018-04-16T08:39:10.628Z,21.86
2018-04-16T08:40:11.150Z,21.93
2018-04-16T08:41:11.722Z,21.79
2018-04-16T08:42:12.306Z,21.89
2018-04-16T08:43:12.883Z,21.85
2018-04-16T08:44:13.451Z,21.62
2018-04-16T08:45:14.027Z,21.42
2018-04-16T08:46:14.600Z,21.51
2018-04-16T08:47:15.166Z,21.65
2018-04-16T08:48:15.748Z,21.64
2018-04-16T08:49:16.316Z,21.75
2018-04-16T08:50:16.874Z,22.07
2018-04-16T08:51:17.445Z,22.02
2018-04-16T08:52:18.023Z,22.20
2018-04-16T08:53:18.608Z,22.20
2018-04-16T08:54:19.190Z,22.28
2018-04-16T08:55:19.763Z,22.26
2018-04-16T08:56:20.327Z,22.44
2018-04-16T08:57:20.905Z,22.44
2018-04-16T08:58:22.463Z,22.51
2018-04-16T08:59:23.033Z,22.33
2018-04-16T09:00:23.606Z,22.57
2018-04-16T09:01:24.180Z,22.62
2018-04-16T09:02:24.766Z,22.60
2018-04-16T09:03:25.331Z,22.75
2018-04-16T09:04:25.910Z,23.00
2018-04-16T09:05:26.492Z,23.31
2018-04-16T09:06:27.067Z,23.65
2018-04-16T09:07:27.646Z,23.81
2018-04-16T09:08:28.219Z,23.69
2018-04-16T09:09:28.802Z,23.44
2018-04-16T09:10:29.366Z,23.28
2018-04-16T09:11:29.937Z,23.18
2018-04-16T09:12:30.515Z,23.34
2018-04-16T09:13:31.092Z,23.27
2018-04-16T09:14:31.668Z,23.28
2018-04-16T09:15:32.254Z,23.16
2018-04-16T09:16:32.829Z,23.03
2018-04-16T09:17:33.473Z,22.94
2018-04-16T09:18:34.056Z,22.97
2018-04-16T09:19:34.636Z,22.84
2018-04-16T09:20:35.201Z,23.08
2018-04-16T09:21:35.795Z,22.84
2018-04-16T09:22:36.357Z,22.87
2018-04-16T09:23:36.930Z,22.75
2018-04-16T09:24:38.505Z,22.63
2018-04-16T09:25:39.077Z,22.75
2018-04-16T09:26:39.644Z,23.00
2018-04-16T09:27:40.220Z,23.18
2018-04-16T09:28:40.794Z,23.15
2018-04-16T09:29:41.367Z,22.78
2018-04-16T09:30:41.947Z,22.66
2018-04-16T09:31:42.521Z,22.35
2018-04-16T09:32:43.107Z,22.48
2018-04-16T09:33:43.677Z,22.54
2018-04-16T09:34:44.260Z,22.48
2018-04-16T09:35:44.831Z,22.53
2018-04-16T09:36:45.397Z,22.39
2018-04-16T09:37:45.977Z,22.32
2018-04-16T09:38:46.566Z,22.01
2018-04-16T09:39:47.152Z,22.01
2018-04-16T09:40:47.723Z,21.92
2018-04-16T09:41:48.373Z,21.85
2018-04-16T09:42:48.877Z,21.49
2018-04-16T09:43:49.468Z,21.39
2018-04-16T09:44:50.057Z,21.22
2018-04-16T09:45:50.603Z,21.24
2018-04-16T09:46:51.157Z,21.20
2018-04-16T09:47:51.734Z,21.00
2018-04-16T09:48:52.320Z,20.88
2018-04-16T09:49:52.888Z,20.84
2018-04-16T09:50:53.575Z,20.85
2018-04-16T09:51:54.078Z,20.88
2018-04-16T09:52:54.677Z,21.20
2018-04-16T09:53:55.244Z,21.40
2018-04-16T09:54:55.863Z,21.30
2018-04-16T09:55:56.557Z,21.37
2018-04-16T09:56:57.087Z,21.54
2018-04-16T09:57:57.662Z,21.55
2018-04-16T09:58:58.240Z,21.32
2018-04-16T09:59:58.801Z,21.32
2018-04-16T10:00:59.451Z,21.33
2018-04-16T10:01:59.978Z,21.07
2018-04-16T10:03:00.577Z,20.80
2018-04-16T10:04:01.188Z,20.66
2018-04-16T10:05:01.766Z,20.54
2018-04-16T10:06:02.363Z,20.32
2018-04-16T10:07:02.902Z,20.24
2018-04-16T10:08:03.470Z,20.19
2018-04-16T10:09:04.043Z,20.28
2018-04-16T10:10:04.608Z,20.34
2018-04-16T10:11:05.183Z,20.29
2018-04-16T10:12:05.745Z,20.28
2018-04-16T10:13:06.317Z,20.11
2018-04-16T10:14:06.886Z,20.14
2018-04-16T10:15:07.478Z,20.25
2018-04-16T10:16:08.041Z,20.80
2018-04-16T10:17:08.641Z,20.82
2018-04-16T10:18:09.248Z,21.17
2018-04-16T10:19:09.816Z,21.54
2018-04-16T10:20:10.402Z,21.72
2018-04-16T10:21:11.022Z,21.95
2018-04-16T10:22:11.677Z,21.93
2018-04-16T10:23:12.293Z,22.53
2018-04-16T10:24:12.830Z,22.70
2018-04-16T10:25:13.405Z,22.83
2018-04-16T10:26:13.986Z,22.95
2018-04-16T10:27:14.555Z,23.25
2018-04-16T10:28:15.140Z,23.56
2018-04-16T10:29:15.726Z,23.91
2018-04-16T10:30:16.301Z,24.17
2018-04-16T10:31:16.884Z,23.83
2018-04-16T10:32:17.475Z,23.54
2018-04-16T10:33:18.059Z,23.68
2018-04-16T10:34:18.649Z,23.94
2018-04-16T10:35:19.249Z,24.17
2018-04-16T10:36:19.832Z,24.45
2018-04-16T10:37:20.623Z,24.35
2018-04-16T10:38:21.229Z,24.08
2018-04-16T10:39:21.804Z,24.43
2018-04-16T10:40:22.429Z,24.53
2018-04-16T10:41:23.072Z,24.73
2018-04-16T10:42:23.858Z,24.99
2018-04-16T10:43:24.451Z,24.83
2018-04-16T10:44:25.256Z,24.98
2018-04-16T10:45:25.890Z,25.24
2018-04-16T10:46:26.639Z,24.96
2018-04-16T10:47:27.233Z,24.92
2018-04-16T10:48:27.813Z,25.16
2018-04-16T10:49:28.403Z,25.32
2018-04-16T10:50:28.984Z,25.57
2018-04-16T10:51:29.567Z,25.76
2018-04-16T10:52:30.153Z,25.76
2018-04-16T10:53:30.732Z,25.18
2018-04-16T10:54:31.302Z,24.77
2018-04-16T10:55:31.990Z,24.48
2018-04-16T10:56:32.522Z,24.27
2018-04-16T10:57:33.180Z,24.36
2018-04-16T10:58:33.720Z,24.86
2018-04-16T10:59:34.518Z,24.68
2018-04-16T11:00:35.102Z,24.98
2018-04-16T11:01:35.717Z,25.26
2018-04-16T11:17:41.817Z,25.84
2018-04-16T11:18:43.172Z,26.05
2018-04-16T11:19:43.777Z,26.19
2018-04-16T11:20:44.392Z,26.31
2018-04-16T11:21:45.114Z,26.41
2018-04-16T11:22:45.745Z,26.59
2018-04-16T11:23:46.316Z,26.61
2018-04-16T11:24:46.904Z,26.26
2018-04-16T11:25:47.524Z,26.62
2018-04-16T11:26:48.105Z,26.85
2018-04-16T11:27:48.686Z,26.87
2018-04-16T11:28:49.257Z,26.84
2018-04-16T11:29:49.847Z,27.02
2018-04-16T11:30:50.435Z,26.96
2018-04-16T11:31:51.010Z,27.02
2018-04-16T11:32:51.601Z,26.83
2018-04-16T11:33:52.179Z,26.73
2018-04-16T11:34:52.753Z,27.08
2018-04-16T11:35:53.336Z,27.00
2018-04-16T11:36:53.912Z,26.96
2018-04-16T11:37:54.481Z,27.02
2018-04-16T11:38:55.041Z,26.73
2018-04-16T11:39:55.621Z,26.25
2018-04-16T11:40:56.214Z,26.19
2018-04-16T11:41:57.033Z,26.05
2018-04-16T11:42:57.612Z,26.05
2018-04-16T11:43:58.189Z,26.24
2018-04-16T11:44:58.827Z,26.24
2018-04-16T11:45:59.377Z,26.28
2018-04-16T11:46:59.948Z,26.48
2018-04-16T11:48:00.517Z,26.39
2018-04-16T11:49:01.104Z,26.51
2018-04-16T11:50:01.674Z,26.58
2018-04-16T11:51:02.329Z,26.68
2018-04-16T11:52:02.862Z,26.69
2018-04-16T11:53:03.453Z,26.65
2018-04-16T11:54:04.026Z,26.66
2018-04-16T11:55:04.594Z,26.85
2018-04-16T11:56:05.173Z,26.96
2018-04-16T11:57:05.761Z,26.88
2018-04-16T11:58:06.326Z,26.99
2018-04-16T11:59:06.907Z,26.99
2018-04-16T12:00:07.490Z,27.11
2018-04-16T12:01:08.060Z,27.30
2018-04-16T12:02:08.654Z,27.54
2018-04-16T12:03:09.216Z,27.63
2018-04-16T12:04:09.795Z,27.32
2018-04-16T12:05:10.373Z,27.08
2018-04-16T12:06:10.949Z,26.85
2018-04-16T12:07:11.581Z,26.50
2018-04-16T12:08:12.099Z,26.22
2018-04-16T12:09:12.663Z,26.54
2018-04-16T12:10:13.450Z,26.34
2018-04-16T12:11:14.065Z,25.95
2018-04-16T12:12:14.650Z,25.80
2018-04-16T12:13:15.221Z,25.39
2018-04-16T12:14:15.797Z,25.24
2018-04-16T12:15:16.378Z,25.09
2018-04-16T12:16:16.940Z,24.61
2018-04-16T12:17:17.515Z,24.74
2018-04-16T12:32:08.161Z,25.87
2018-04-16T12:33:08.737Z,26.08
2018-04-16T12:34:09.317Z,25.94
2018-04-16T12:35:09.932Z,25.75
2018-04-16T12:36:10.497Z,25.71
2018-04-16T12:37:11.079Z,25.58
2018-04-16T12:38:11.659Z,25.73
2018-04-16T12:39:12.244Z,25.75
2018-04-16T12:40:12.870Z,25.99
2018-04-16T12:41:13.449Z,25.95
2018-04-16T12:42:14.068Z,25.75
2018-04-16T12:43:14.641Z,25.86
2018-04-16T12:44:15.221Z,25.72
2018-04-16T12:45:15.809Z,25.36
2018-04-16T12:46:16.394Z,25.06
2018-04-16T12:47:16.976Z,24.69
2018-04-16T12:48:17.563Z,24.41
2018-04-16T12:49:19.547Z,24.16
2018-04-16T12:50:20.974Z,23.99
2018-04-16T12:51:21.555Z,23.96
2018-04-16T12:52:22.164Z,23.80
2018-04-16T12:53:22.708Z,23.76
2018-04-16T12:54:23.286Z,23.71
2018-04-16T12:55:23.880Z,23.59
2018-04-16T12:56:24.442Z,23.32
2018-04-16T12:57:25.020Z,23.23
2018-04-16T12:58:25.589Z,23.15
2018-04-16T12:59:26.164Z,23.08
2018-04-16T13:00:26.739Z,23.21
2018-04-16T13:01:27.347Z,23.28
2018-04-16T13:02:28.880Z,23.21
2018-04-16T13:03:29.439Z,23.05
2018-04-16T13:04:30.027Z,22.85
2018-04-16T13:05:30.628Z,22.78
2018-04-16T13:06:31.166Z,22.69
2018-04-16T13:07:31.761Z,22.51
2018-04-16T13:08:32.328Z,22.51
2018-04-16T13:09:32.914Z,22.39
2018-04-16T13:10:33.497Z,22.24
2018-04-16T13:11:34.087Z,22.28
2018-04-16T13:12:34.716Z,22.33
2018-04-16T13:13:35.274Z,22.38
2018-04-16T13:14:35.893Z,22.46
2018-04-16T13:15:36.412Z,22.47
2018-04-16T13:16:36.971Z,22.55
2018-04-16T13:17:37.548Z,22.58
2018-04-16T13:18:38.115Z,22.46
2018-04-16T13:19:38.671Z,22.57
2018-04-16T13:20:39.238Z,22.28
2018-04-16T13:21:39.806Z,22.44
2018-04-16T13:22:40.364Z,22.47
2018-04-16T13:23:40.931Z,22.48
2018-04-16T13:24:41.500Z,22.66
2018-04-16T13:25:42.072Z,22.73
2018-04-16T13:26:42.641Z,22.63
2018-04-16T13:27:43.219Z,22.83
2018-04-16T13:28:43.781Z,23.31